Time;durP1;ratioP1;P1;durP2;ratioP2;P2;SDS_P1;SDS_P2;PMS_P1;PMS_P2;Temp;Humidity;BMP_temperature;BMP_pressure;BME280_temperature;BME280_humidity;BME280_pressure;Samples;Min_cycle;Max_cycle;Signal;HPM_P1;HPM_P2
2023/08/31 00:00:31;;;;;;;3.25;0.75;;;15.30;99.90;;;;;;5074313;28;20037;-79
2023/08/31 00:02:57;;;;;;;0.77;0.77;;;15.40;99.90;;;;;;5071013;28;20021;-80
2023/08/31 00:05:24;;;;;;;1.98;0.60;;;15.40;99.90;;;;;;5063991;28;20031;-79
2023/08/31 00:07:50;;;;;;;0.50;0.50;;;15.40;99.90;;;;;;5063536;28;20025;-79
2023/08/31 00:10:17;;;;;;;0.50;0.50;;;15.50;99.90;;;;;;5064954;28;20061;-79
2023/08/31 00:12:42;;;;;;;1.30;0.70;;;15.50;99.90;;;;;;5064128;28;20032;-78
2023/08/31 00:15:09;;;;;;;0.77;0.50;;;15.50;99.90;;;;;;5064059;28;20491;-78
2023/08/31 00:17:35;;;;;;;0.93;0.50;;;15.50;99.90;;;;;;5065529;28;20071;-79
2023/08/31 00:20:02;;;;;;;1.00;0.60;;;15.50;99.90;;;;;;5065691;28;20423;-80
2023/08/31 00:22:28;;;;;;;1.75;0.65;;;15.50;99.90;;;;;;5067590;28;20097;-79
2023/08/31 00:24:54;;;;;;;2.53;0.60;;;15.50;99.90;;;;;;5066738;28;20033;-80
2023/08/31 00:27:21;;;;;;;1.08;0.50;;;15.50;99.90;;;;;;5066847;28;20032;-79
2023/08/31 00:29:50;;;;;;;4.88;0.80;;;15.50;99.90;;;;;;5073645;28;20013;-78
2023/08/31 00:32:18;;;;;;;1.20;0.80;;;15.50;99.90;;;;;;5076299;28;20025;-79
2023/08/31 00:34:44;;;;;;;0.93;0.40;;;15.40;99.90;;;;;;5076728;28;20017;-78
2023/08/31 00:37:10;;;;;;;5.60;0.65;;;15.40;99.90;;;;;;5074436;28;20029;-77
2023/08/31 00:39:36;;;;;;;0.68;0.68;;;15.40;99.90;;;;;;5077022;28;20086;-78
2023/08/31 00:42:01;;;;;;;1.27;0.63;;;15.40;99.90;;;;;;5077034;28;20021;-78
2023/08/31 00:44:27;;;;;;;3.13;0.60;;;15.40;99.90;;;;;;5075901;28;20037;-78
2023/08/31 00:46:53;;;;;;;0.70;0.70;;;15.40;99.90;;;;;;5066650;28;20036;-79
2023/08/31 00:49:18;;;;;;;1.67;0.55;;;15.50;99.90;;;;;;5059390;28;20025;-79
2023/08/31 00:51:48;;;;;;;1.90;0.70;;;15.40;99.90;;;;;;5057628;28;20124;-79
2023/08/31 00:54:16;;;;;;;2.78;0.70;;;15.40;99.90;;;;;;5059270;28;20049;-79
2023/08/31 00:56:42;;;;;;;1.50;0.60;;;15.40;99.90;;;;;;5057390;28;20099;-79
2023/08/31 00:59:08;;;;;;;1.02;0.95;;;15.40;99.90;;;;;;5057496;28;20036;-79
2023/08/31 01:01:49;;;;;;;1.17;0.40;;;15.40;99.90;;;;;;5058796;28;20038;-79
2023/08/31 01:04:39;;;;;;;3.13;0.70;;;15.40;99.90;;;;;;5058016;28;20029;-78
2023/08/31 01:07:37;;;;;;;0.40;0.40;;;15.30;99.90;;;;;;5057872;28;20149;-79
2023/08/31 01:10:34;;;;;;;0.47;0.47;;;15.40;99.90;;;;;;5057197;28;20052;-78
2023/08/31 01:13:13;;;;;;;1.55;0.63;;;15.40;99.90;;;;;;5056812;28;20023;-78
2023/08/31 01:15:42;;;;;;;2.35;0.60;;;15.40;99.90;;;;;;5055997;28;20048;-78
2023/08/31 01:18:11;;;;;;;6.05;0.90;;;15.40;99.90;;;;;;5056024;28;20029;-78
2023/08/31 01:20:52;;;;;;;0.70;0.70;;;15.40;99.90;;;;;;5056042;28;20021;-79
2023/08/31 01:23:26;;;;;;;0.75;0.50;;;15.40;99.90;;;;;;5054950;28;20090;-78
2023/08/31 01:25:52;;;;;;;2.58;0.57;;;15.40;99.90;;;;;;5055823;28;20441;-79
2023/08/31 01:28:18;;;;;;;4.07;0.52;;;15.40;99.90;;;;;;5058468;28;20029;-78
2023/08/31 01:30:43;;;;;;;0.50;0.45;;;15.40;99.90;;;;;;5055547;28;20083;-79
2023/08/31 01:33:09;;;;;;;0.45;0.45;;;15.40;99.90;;;;;;5056849;28;20025;-80
2023/08/31 01:35:43;;;;;;;0.60;0.60;;;15.40;99.90;;;;;;5056388;28;20113;-79
2023/08/31 01:38:10;;;;;;;0.30;0.30;;;15.40;99.90;;;;;;5055621;28;20379;-80
2023/08/31 01:40:41;;;;;;;0.45;0.45;;;15.30;99.90;;;;;;5056483;28;20021;-79
2023/08/31 01:43:09;;;;;;;0.57;0.50;;;15.30;99.90;;;;;;5058282;28;20063;-79
2023/08/31 01:45:35;;;;;;;1.10;0.52;;;15.30;99.90;;;;;;5055873;28;20028;-79
2023/08/31 01:48:01;;;;;;;1.52;0.60;;;15.30;99.90;;;;;;5057987;28;20057;-79
2023/08/31 01:50:27;;;;;;;3.97;0.50;;;15.20;99.90;;;;;;5057654;28;20032;-79
2023/08/31 01:52:58;;;;;;;0.90;0.77;;;15.20;99.90;;;;;;5057815;28;20517;-79
2023/08/31 01:55:24;;;;;;;3.58;0.57;;;15.20;99.90;;;;;;5057417;28;20576;-79
2023/08/31 01:57:50;;;;;;;1.00;0.80;;;15.20;99.90;;;;;;5056707;28;20047;-79
2023/08/31 02:00:17;;;;;;;0.55;0.55;;;15.20;99.90;;;;;;5054962;28;20502;-78
2023/08/31 02:02:43;;;;;;;4.63;1.35;;;15.30;99.90;;;;;;5052223;28;20035;-78
2023/08/31 02:05:09;;;;;;;0.50;0.50;;;15.30;99.90;;;;;;5056033;28;20021;-78
2023/08/31 02:07:35;;;;;;;1.38;0.50;;;15.20;99.90;;;;;;5053652;28;20029;-78
2023/08/31 02:10:01;;;;;;;1.52;0.63;;;15.20;99.90;;;;;;5053997;28;20032;-79
2023/08/31 02:12:27;;;;;;;1.92;0.77;;;15.20;99.90;;;;;;5051387;28;20083;-78
2023/08/31 02:14:53;;;;;;;1.75;0.70;;;15.20;99.90;;;;;;5055021;28;20025;-78
2023/08/31 02:17:19;;;;;;;3.33;0.43;;;15.20;99.90;;;;;;5055419;28;20391;-78
2023/08/31 02:19:45;;;;;;;0.40;0.40;;;15.20;99.90;;;;;;5058203;28;20025;-79
2023/08/31 02:22:10;;;;;;;1.65;0.55;;;15.10;99.90;;;;;;5056575;28;20021;-77
2023/08/31 02:24:36;;;;;;;0.60;0.45;;;15.10;99.90;;;;;;5055444;28;20021;-79
2023/08/31 02:27:02;;;;;;;2.20;0.45;;;15.10;99.90;;;;;;5053405;28;20025;-78
2023/08/31 02:29:27;;;;;;;3.75;0.82;;;15.10;99.90;;;;;;5057047;28;20021;-79
2023/08/31 02:31:53;;;;;;;1.08;0.73;;;15.10;99.90;;;;;;5056792;28;20029;-79
2023/08/31 02:34:19;;;;;;;5.68;0.68;;;15.00;99.90;;;;;;5056000;28;20021;-78
2023/08/31 02:36:44;;;;;;;0.93;0.50;;;15.10;99.90;;;;;;5056536;28;20032;-78
2023/08/31 02:39:10;;;;;;;2.15;0.63;;;15.10;99.90;;;;;;5053430;28;20031;-78
2023/08/31 02:41:36;;;;;;;2.17;0.45;;;15.10;99.90;;;;;;5055863;28;20096;-79
2023/08/31 02:44:01;;;;;;;1.95;0.50;;;15.10;99.90;;;;;;5055960;28;20021;-79
2023/08/31 02:46:27;;;;;;;0.80;0.70;;;15.00;99.90;;;;;;5056456;28;20029;-79
2023/08/31 02:48:53;;;;;;;1.60;0.77;;;15.00;99.90;;;;;;5054502;28;20582;-78
2023/08/31 02:51:19;;;;;;;3.40;0.82;;;15.10;99.90;;;;;;5052187;28;20052;-78
2023/08/31 02:53:44;;;;;;;0.40;0.40;;;15.10;99.90;;;;;;5056366;28;20044;-79
2023/08/31 02:56:10;;;;;;;1.10;0.70;;;15.10;99.90;;;;;;5054360;28;20119;-78
2023/08/31 02:58:35;;;;;;;0.47;0.47;;;15.00;99.90;;;;;;5056021;28;20116;-79
2023/08/31 03:01:11;;;;;;;2.38;0.70;;;15.00;99.90;;;;;;5089671;22;20051;-75
2023/08/31 03:03:38;;;;;;;1.10;0.80;;;15.00;99.90;;;;;;5076622;28;20021;-75
2023/08/31 03:06:03;;;;;;;0.65;0.65;;;15.00;99.90;;;;;;5074976;28;20056;-75
2023/08/31 03:08:29;;;;;;;0.40;0.40;;;15.00;99.90;;;;;;5075075;28;20453;-76
2023/08/31 03:10:56;;;;;;;0.57;0.57;;;15.00;99.90;;;;;;5076695;28;20028;-75
2023/08/31 03:13:22;;;;;;;1.70;0.60;;;15.00;99.90;;;;;;5077178;28;20070;-76
2023/08/31 03:15:48;;;;;;;2.70;0.60;;;15.00;99.90;;;;;;5075311;28;20020;-76
2023/08/31 03:18:13;;;;;;;0.80;0.80;;;15.00;99.90;;;;;;5076462;28;20033;-77
2023/08/31 03:20:39;;;;;;;6.03;1.00;;;15.10;99.90;;;;;;5077025;28;20031;-76
2023/08/31 03:23:04;;;;;;;0.60;0.60;;;15.20;99.90;;;;;;5076352;28;20017;-77
2023/08/31 03:25:30;;;;;;;3.03;0.90;;;15.10;99.90;;;;;;5075135;28;20031;-76
2023/08/31 03:27:56;;;;;;;2.65;0.80;;;15.00;99.90;;;;;;5075663;28;20032;-77
2023/08/31 03:30:21;;;;;;;1.52;1.00;;;15.00;99.90;;;;;;5075641;28;20529;-75
2023/08/31 03:32:48;;;;;;;3.00;0.85;;;15.00;99.90;;;;;;5075625;28;20103;-75
2023/08/31 03:35:13;;;;;;;0.88;0.85;;;14.90;99.90;;;;;;5074192;28;20024;-76
2023/08/31 03:37:39;;;;;;;1.90;1.08;;;14.80;99.90;;;;;;5075261;28;20578;-75
2023/08/31 03:40:06;;;;;;;1.30;0.70;;;14.90;99.90;;;;;;5074393;28;20021;-75
2023/08/31 03:42:33;;;;;;;2.38;0.60;;;14.80;99.90;;;;;;5074301;28;20394;-75
2023/08/31 03:44:59;;;;;;;1.23;1.13;;;14.80;99.90;;;;;;5075625;28;20020;-75
2023/08/31 03:47:25;;;;;;;6.63;1.10;;;14.80;99.90;;;;;;5075274;28;20028;-76
2023/08/31 03:49:50;;;;;;;1.27;0.85;;;14.80;99.90;;;;;;5074645;28;20088;-76
2023/08/31 03:52:16;;;;;;;3.03;1.15;;;14.70;99.90;;;;;;5074648;28;20065;-76
2023/08/31 03:54:42;;;;;;;1.13;0.73;;;14.80;99.90;;;;;;5076023;28;20033;-76
2023/08/31 03:57:07;;;;;;;3.20;1.33;;;14.70;99.90;;;;;;5075609;28;20047;-76
2023/08/31 03:59:33;;;;;;;2.15;0.70;;;14.70;99.90;;;;;;5075688;28;21424;-77
2023/08/31 04:01:59;;;;;;;1.63;1.00;;;14.70;99.90;;;;;;5075566;28;20479;-77
2023/08/31 04:04:25;;;;;;;1.40;1.30;;;14.70;99.90;;;;;;5075508;28;20048;-77
2023/08/31 04:06:50;;;;;;;1.40;1.17;;;14.70;99.90;;;;;;5075794;28;20051;-78
2023/08/31 04:09:16;;;;;;;1.63;0.95;;;14.70;99.90;;;;;;5075386;28;20047;-77
2023/08/31 04:11:41;;;;;;;2.78;1.17;;;14.60;99.90;;;;;;5074110;28;20024;-76
2023/08/31 04:14:07;;;;;;;4.32;1.35;;;14.60;99.90;;;;;;5074649;28;20029;-76
2023/08/31 04:16:32;;;;;;;1.02;0.93;;;14.60;99.90;;;;;;5075407;28;20027;-76
2023/08/31 04:18:58;;;;;;;0.90;0.90;;;14.60;99.90;;;;;;5074025;28;20032;-77
2023/08/31 04:21:24;;;;;;;2.50;1.15;;;14.60;99.90;;;;;;5074804;28;20025;-76
2023/08/31 04:23:49;;;;;;;1.10;1.00;;;14.60;99.90;;;;;;5074951;28;20028;-76
2023/08/31 04:26:16;;;;;;;2.25;1.00;;;14.60;99.90;;;;;;5074710;28;20025;-75
2023/08/31 04:28:42;;;;;;;3.40;1.35;;;14.60;99.90;;;;;;5073311;28;20559;-76
2023/08/31 04:31:08;;;;;;;1.75;1.10;;;14.60;99.90;;;;;;5074433;28;20052;-78
2023/08/31 04:33:38;;;;;;;4.65;1.25;;;14.60;99.90;;;;;;5074254;28;20066;-75
2023/08/31 04:36:04;;;;;;;2.58;1.20;;;14.50;99.90;;;;;;5075399;28;20031;-75
2023/08/31 04:38:31;;;;;;;2.10;0.88;;;14.60;99.90;;;;;;5072845;28;20524;-77
2023/08/31 04:41:01;;;;;;;3.92;0.95;;;14.60;99.90;;;;;;5073576;28;20020;-76
2023/08/31 04:43:27;;;;;;;0.75;0.73;;;14.60;99.90;;;;;;5075159;28;20052;-76
2023/08/31 04:45:53;;;;;;;5.15;1.25;;;14.70;99.90;;;;;;5073920;28;20074;-76
2023/08/31 04:48:19;;;;;;;0.93;0.90;;;14.70;99.90;;;;;;5080107;28;20029;-76
2023/08/31 04:50:45;;;;;;;2.17;1.27;;;14.60;99.90;;;;;;5074932;28;20032;-75
2023/08/31 04:53:11;;;;;;;4.22;1.45;;;16.30;99.90;;;;;;5072927;28;20032;-74
2023/08/31 04:55:37;;;;;;;5.90;1.83;;;17.00;99.90;;;;;;5072743;28;20115;-75
2023/08/31 04:58:03;;;;;;;1.50;1.20;;;17.20;99.90;;;;;;5072497;28;20479;-75
2023/08/31 05:00:29;;;;;;;3.38;1.65;;;17.80;99.90;;;;;;5076971;28;20089;-75
2023/08/31 05:02:55;;;;;;;3.78;1.83;;;18.10;99.90;;;;;;5073378;28;20081;-75
2023/08/31 05:05:21;;;;;;;2.70;1.75;;;18.40;99.90;;;;;;5072466;28;20020;-75
2023/08/31 05:07:47;;;;;;;1.90;0.65;;;18.30;99.90;;;;;;5075003;28;20040;-74
2023/08/31 05:10:13;;;;;;;1.02;0.70;;;17.80;99.90;;;;;;5072297;28;20186;-74
2023/08/31 05:12:38;;;;;;;1.77;0.93;;;17.80;99.90;;;;;;5074066;28;20032;-75
2023/08/31 05:15:05;;;;;;;5.20;1.02;;;17.70;99.90;;;;;;5072066;28;20126;-77
2023/08/31 05:17:30;;;;;;;2.85;1.25;;;17.70;99.90;;;;;;5071774;28;20090;-75
2023/08/31 05:19:56;;;;;;;5.25;1.00;;;17.70;99.90;;;;;;5073183;28;20048;-76
2023/08/31 05:22:22;;;;;;;2.28;0.60;;;17.90;99.90;;;;;;5071572;28;20020;-74
2023/08/31 05:24:48;;;;;;;1.10;1.00;;;17.70;99.90;;;;;;5071618;28;20534;-76
2023/08/31 05:27:13;;;;;;;1.15;0.65;;;17.70;99.90;;;;;;5071127;28;20020;-76
2023/08/31 05:29:39;;;;;;;2.00;0.82;;;17.50;99.90;;;;;;5071486;28;20024;-77
2023/08/31 05:32:05;;;;;;;1.58;0.70;;;17.30;99.90;;;;;;5072225;28;20028;-76
2023/08/31 05:34:33;;;;;;;2.78;0.98;;;17.10;99.90;;;;;;5072277;28;20025;-76
2023/08/31 05:36:58;;;;;;;1.27;1.23;;;17.20;99.90;;;;;;5072224;28;20560;-77
2023/08/31 05:39:25;;;;;;;1.30;1.13;;;17.20;99.90;;;;;;5073324;28;20028;-77
2023/08/31 05:41:50;;;;;;;7.25;1.35;;;17.40;99.90;;;;;;5071461;28;20020;-77
2023/08/31 05:44:16;;;;;;;3.45;0.90;;;17.40;99.90;;;;;;5072539;28;20024;-76
2023/08/31 05:46:42;;;;;;;1.77;0.82;;;17.50;99.90;;;;;;5072582;28;20021;-76
2023/08/31 05:49:08;;;;;;;0.90;0.88;;;17.60;99.90;;;;;;5070730;28;20035;-76
2023/08/31 05:51:35;;;;;;;0.80;0.80;;;17.90;99.90;;;;;;5072930;28;20016;-78
2023/08/31 05:54:01;;;;;;;2.08;1.33;;;18.00;99.90;;;;;;5073010;28;20070;-76
2023/08/31 05:56:26;;;;;;;0.77;0.73;;;17.70;99.90;;;;;;5071813;28;20116;-77
2023/08/31 05:58:54;;;;;;;0.63;0.63;;;17.50;99.90;;;;;;5072263;28;20099;-76
2023/08/31 06:01:20;;;;;;;0.88;0.88;;;17.80;99.90;;;;;;5071241;28;20031;-76
2023/08/31 06:03:46;;;;;;;0.95;0.57;;;17.90;99.90;;;;;;5072651;28;20017;-75
2023/08/31 06:06:11;;;;;;;0.73;0.73;;;17.70;99.90;;;;;;5072682;28;20020;-76
2023/08/31 06:08:37;;;;;;;2.22;0.60;;;17.70;99.90;;;;;;5072280;28;20086;-76
2023/08/31 06:11:02;;;;;;;0.88;0.55;;;17.70;99.90;;;;;;5072532;28;20066;-76
2023/08/31 06:13:28;;;;;;;0.70;0.60;;;17.90;99.90;;;;;;5072406;28;20024;-76
2023/08/31 06:15:55;;;;;;;2.10;1.17;;;17.90;99.90;;;;;;5070901;28;20635;-77
2023/08/31 06:18:21;;;;;;;0.88;0.88;;;18.00;99.90;;;;;;5070626;28;20078;-75
2023/08/31 06:20:48;;;;;;;1.65;1.00;;;18.00;99.90;;;;;;5073810;28;20441;-75
2023/08/31 06:23:14;;;;;;;0.98;0.82;;;17.60;99.90;;;;;;5073339;28;20483;-75
2023/08/31 06:25:40;;;;;;;3.22;1.90;;;17.90;99.90;;;;;;5068977;28;20031;-76
2023/08/31 06:28:08;;;;;;;4.90;1.05;;;17.90;99.90;;;;;;5070651;28;20024;-76
2023/08/31 06:30:34;;;;;;;1.02;0.70;;;18.20;99.90;;;;;;5069994;28;20605;-76
2023/08/31 06:33:00;;;;;;;1.05;0.70;;;17.80;99.90;;;;;;5070574;28;20486;-77
2023/08/31 06:35:26;;;;;;;1.63;0.80;;;17.80;99.90;;;;;;5070347;28;20039;-75
2023/08/31 06:37:51;;;;;;;1.60;1.20;;;17.70;99.90;;;;;;5070746;28;20028;-76
2023/08/31 06:40:17;;;;;;;2.42;1.08;;;17.50;99.90;;;;;;5070468;28;20050;-78
2023/08/31 06:42:43;;;;;;;1.35;0.95;;;17.60;99.90;;;;;;5071942;28;20016;-75
2023/08/31 06:45:09;;;;;;;1.13;0.93;;;17.90;99.90;;;;;;5075731;28;20158;-75
2023/08/31 06:47:35;;;;;;;0.60;0.57;;;18.00;99.90;;;;;;5071660;28;20056;-77
2023/08/31 06:50:01;;;;;;;0.70;0.70;;;17.90;99.90;;;;;;5071824;28;20028;-78
2023/08/31 06:52:27;;;;;;;1.55;0.90;;;17.90;99.90;;;;;;5073852;28;20024;-76
2023/08/31 06:54:56;;;;;;;2.38;0.70;;;18.10;99.90;;;;;;5078515;28;20040;-76
2023/08/31 06:57:26;;;;;;;1.33;0.80;;;18.40;99.90;;;;;;5072426;28;20028;-76
2023/08/31 06:59:51;;;;;;;0.77;0.77;;;18.60;99.90;;;;;;5071033;28;20179;-78
2023/08/31 07:02:19;;;;;;;0.80;0.80;;;18.70;99.90;;;;;;5071634;28;20049;-75
2023/08/31 07:04:45;;;;;;;4.38;0.65;;;18.90;99.90;;;;;;5070677;28;20075;-75
2023/08/31 07:07:13;;;;;;;2.88;0.70;;;18.90;99.90;;;;;;5072836;28;20048;-76
2023/08/31 07:09:38;;;;;;;2.78;0.70;;;18.90;99.90;;;;;;5072362;28;20036;-77
2023/08/31 07:12:04;;;;;;;0.98;0.68;;;18.70;99.90;;;;;;5073098;28;20032;-77
2023/08/31 07:14:30;;;;;;;1.52;0.82;;;18.80;99.90;;;;;;5071006;28;20052;-77
2023/08/31 07:16:55;;;;;;;0.73;0.68;;;19.00;99.90;;;;;;5071857;28;20431;-76
2023/08/31 07:19:21;;;;;;;1.15;0.90;;;19.00;99.90;;;;;;5070968;28;20024;-74
2023/08/31 07:21:47;;;;;;;0.55;0.45;;;19.20;99.90;;;;;;5072656;28;20074;-75
2023/08/31 07:24:13;;;;;;;2.55;0.68;;;19.20;99.90;;;;;;5070995;28;20086;-75
2023/08/31 07:26:39;;;;;;;1.60;1.13;;;19.40;99.90;;;;;;5072063;28;20024;-76
2023/08/31 07:29:04;;;;;;;0.65;0.63;;;19.50;99.90;;;;;;5070629;28;20021;-76
2023/08/31 07:31:31;;;;;;;0.63;0.63;;;19.70;99.90;;;;;;5072222;28;20027;-77
2023/08/31 07:33:57;;;;;;;0.82;0.82;;;19.90;99.90;;;;;;5071359;28;20111;-75
2023/08/31 07:36:23;;;;;;;2.80;0.55;;;19.70;99.90;;;;;;5070251;28;20159;-77
2023/08/31 07:38:48;;;;;;;22.45;4.63;;;19.60;99.90;;;;;;5068918;28;20083;-77
2023/08/31 07:41:14;;;;;;;73.32;10.30;;;19.70;99.90;;;;;;5069726;28;20024;-77
2023/08/31 07:43:39;;;;;;;32.65;3.83;;;19.80;99.90;;;;;;5069956;28;20017;-77
2023/08/31 07:46:05;;;;;;;1.13;1.02;;;19.90;99.90;;;;;;5072258;28;20033;-77
2023/08/31 07:48:31;;;;;;;0.68;0.68;;;19.90;99.90;;;;;;5073280;28;20421;-77
2023/08/31 07:50:56;;;;;;;0.63;0.63;;;19.90;99.90;;;;;;5073624;28;20479;-77
2023/08/31 07:53:22;;;;;;;1.13;0.65;;;19.90;99.90;;;;;;5073579;28;20043;-77
2023/08/31 07:55:56;;;;;;;1.75;0.82;;;19.80;99.90;;;;;;5073849;28;20043;-79
2023/08/31 07:58:22;;;;;;;1.48;0.77;;;19.90;99.90;;;;;;5073187;28;20051;-77
2023/08/31 08:00:48;;;;;;;1.70;0.60;;;19.90;99.90;;;;;;5073394;28;20032;-78
2023/08/31 08:03:14;;;;;;;0.70;0.70;;;20.00;99.90;;;;;;5075007;28;20584;-78
2023/08/31 08:05:41;;;;;;;0.77;0.77;;;20.10;99.90;;;;;;5073518;28;20059;-77
2023/08/31 08:08:07;;;;;;;1.13;0.50;;;20.20;99.90;;;;;;5073405;28;20036;-78
2023/08/31 08:10:32;;;;;;;0.50;0.50;;;20.10;99.90;;;;;;5073630;28;20543;-78
2023/08/31 08:12:58;;;;;;;1.25;0.45;;;20.20;99.90;;;;;;5073199;28;20580;-78
2023/08/31 08:15:24;;;;;;;0.73;0.57;;;20.30;99.90;;;;;;5073516;28;20024;-79
2023/08/31 08:17:50;;;;;;;2.13;0.75;;;20.30;99.90;;;;;;5073092;28;20021;-79
2023/08/31 08:20:15;;;;;;;0.50;0.50;;;20.30;99.90;;;;;;5072912;28;20027;-78
2023/08/31 08:22:41;;;;;;;0.40;0.40;;;20.40;99.90;;;;;;5072850;28;20034;-78
2023/08/31 08:25:07;;;;;;;1.50;0.70;;;20.60;99.90;;;;;;5072995;28;20028;-77
2023/08/31 08:27:33;;;;;;;0.50;0.50;;;20.60;99.90;;;;;;5074131;28;20437;-77
2023/08/31 08:29:59;;;;;;;0.52;0.50;;;20.70;99.90;;;;;;5072409;28;20020;-77
2023/08/31 08:32:25;;;;;;;1.05;0.70;;;20.80;99.90;;;;;;5073101;28;20478;-79
2023/08/31 08:34:51;;;;;;;1.38;0.50;;;20.90;99.90;;;;;;5074215;28;20030;-81
2023/08/31 08:37:17;;;;;;;2.20;0.82;;;21.10;99.90;;;;;;5072955;28;20067;-79
2023/08/31 08:39:43;;;;;;;2.33;0.82;;;21.00;99.60;;;;;;5073267;28;20020;-80
2023/08/31 08:42:10;;;;;;;0.70;0.60;;;21.10;99.60;;;;;;5072998;28;20111;-78
2023/08/31 08:44:36;;;;;;;1.05;0.98;;;21.00;98.10;;;;;;5073010;28;20030;-79
2023/08/31 08:47:03;;;;;;;1.25;0.70;;;21.00;98.60;;;;;;5072995;28;20115;-79
2023/08/31 08:49:31;;;;;;;1.02;0.68;;;21.20;99.00;;;;;;5073783;28;20070;-78
2023/08/31 08:51:58;;;;;;;0.47;0.47;;;21.30;97.60;;;;;;5072845;28;20073;-79
2023/08/31 08:54:25;;;;;;;1.55;0.80;;;21.40;97.60;;;;;;5072755;28;20024;-78
2023/08/31 08:56:51;;;;;;;0.77;0.45;;;21.50;95.60;;;;;;5072417;28;20427;-77
2023/08/31 08:59:16;;;;;;;0.85;0.50;;;21.50;95.10;;;;;;5071678;28;20032;-79
2023/08/31 09:01:43;;;;;;;0.90;0.68;;;21.60;95.00;;;;;;5062921;22;20052;-80
2023/08/31 09:04:09;;;;;;;0.82;0.50;;;21.60;95.60;;;;;;5038764;28;20025;-80
2023/08/31 09:06:35;;;;;;;1.40;0.68;;;21.70;94.90;;;;;;5037515;28;20032;-80
2023/08/31 09:09:01;;;;;;;0.70;0.68;;;21.70;94.70;;;;;;5040019;28;20025;-81
2023/08/31 09:11:27;;;;;;;0.50;0.50;;;21.70;93.80;;;;;;5026302;28;20033;-80
2023/08/31 09:13:52;;;;;;;0.80;0.40;;;21.70;91.50;;;;;;5018983;28;20025;-81
2023/08/31 09:16:31;;;;;;;0.60;0.60;;;21.70;90.60;;;;;;5021301;28;20068;-81
2023/08/31 09:18:58;;;;;;;0.43;0.40;;;21.60;89.20;;;;;;5019590;28;20029;-79
2023/08/31 09:21:37;;;;;;;0.45;0.40;;;21.90;90.30;;;;;;5019938;28;20042;-81
2023/08/31 09:24:07;;;;;;;1.38;0.52;;;21.90;85.70;;;;;;5020649;28;20021;-81
2023/08/31 09:26:37;;;;;;;0.88;0.47;;;22.00;86.80;;;;;;5016051;28;20018;-81
2023/08/31 09:29:07;;;;;;;0.57;0.50;;;22.10;86.90;;;;;;5014026;28;20033;-80
2023/08/31 09:31:33;;;;;;;1.13;0.50;;;22.00;86.70;;;;;;5015078;28;20036;-80
2023/08/31 09:33:59;;;;;;;0.50;0.38;;;22.20;85.20;;;;;;5013334;28;20022;-80
2023/08/31 09:36:28;;;;;;;0.50;0.50;;;22.30;87.60;;;;;;5014716;28;20484;-80
2023/08/31 09:38:58;;;;;;;2.30;0.60;;;22.40;86.80;;;;;;5013550;28;20072;-81
2023/08/31 09:41:24;;;;;;;1.80;0.55;;;22.40;85.40;;;;;;5013324;28;20042;-81
2023/08/31 09:43:49;;;;;;;0.35;0.35;;;22.50;90.30;;;;;;5014444;28;20030;-80
2023/08/31 09:46:15;;;;;;;0.50;0.50;;;22.60;83.50;;;;;;5014279;28;20072;-80
2023/08/31 09:48:43;;;;;;;1.33;0.50;;;22.70;83.30;;;;;;5013761;28;20026;-81
2023/08/31 09:51:14;;;;;;;1.20;0.57;;;22.80;80.80;;;;;;5015192;28;20026;-82
2023/08/31 09:53:41;;;;;;;0.50;0.50;;;22.60;80.50;;;;;;5014231;28;20030;-82
2023/08/31 09:56:12;;;;;;;0.50;0.50;;;22.70;79.20;;;;;;5015200;28;20483;-82
2023/08/31 09:58:38;;;;;;;1.17;0.50;;;22.70;81.00;;;;;;5014018;28;20026;-82
2023/08/31 10:01:06;;;;;;;0.43;0.43;;;22.80;77.80;;;;;;5015960;28;20391;-83
2023/08/31 10:03:32;;;;;;;0.70;0.50;;;22.80;77.70;;;;;;5017807;28;20022;-83
2023/08/31 10:05:58;;;;;;;1.10;0.60;;;22.90;78.00;;;;;;5016314;28;20108;-83
2023/08/31 10:08:28;;;;;;;0.43;0.38;;;22.90;77.70;;;;;;5016110;28;20026;-83
2023/08/31 10:10:54;;;;;;;0.60;0.40;;;22.80;74.80;;;;;;5017521;28;20027;-84
2023/08/31 10:13:21;;;;;;;0.30;0.30;;;22.90;73.00;;;;;;5018908;28;20034;-83
2023/08/31 10:15:48;;;;;;;0.60;0.40;;;22.90;75.10;;;;;;5016323;28;20056;-83
2023/08/31 10:18:15;;;;;;;0.40;0.40;;;22.90;74.20;;;;;;5016566;28;20079;-83
2023/08/31 10:20:43;;;;;;;1.02;0.70;;;23.00;76.20;;;;;;5017880;28;20108;-83
2023/08/31 10:23:09;;;;;;;0.50;0.50;;;22.90;73.70;;;;;;5015855;28;20030;-83
2023/08/31 10:25:50;;;;;;;0.40;0.30;;;22.60;71.90;;;;;;5016031;28;20050;-83
2023/08/31 10:28:24;;;;;;;0.88;0.60;;;22.70;75.50;;;;;;5015796;28;20484;-82
2023/08/31 10:31:06;;;;;;;0.95;0.68;;;22.70;73.20;;;;;;5017288;28;20026;-82
2023/08/31 10:33:43;;;;;;;1.60;0.65;;;22.80;72.10;;;;;;5016152;28;20025;-83
2023/08/31 10:36:13;;;;;;;0.80;0.45;;;22.70;74.40;;;;;;5018148;28;20057;-83
2023/08/31 10:38:38;;;;;;;0.70;0.43;;;22.80;76.00;;;;;;5017419;28;20033;-83
2023/08/31 10:41:07;;;;;;;0.85;0.70;;;23.00;70.00;;;;;;5017389;28;20022;-83
2023/08/31 10:43:57;;;;;;;0.50;0.50;;;23.00;69.20;;;;;;5017038;28;20061;-83
2023/08/31 10:46:29;;;;;;;0.73;0.50;;;23.00;69.90;;;;;;5018267;28;20108;-83
2023/08/31 10:49:17;;;;;;;2.00;0.90;;;23.00;69.80;;;;;;5017788;28;20082;-83
2023/08/31 10:51:53;;;;;;;0.80;0.50;;;23.00;67.40;;;;;;5018529;28;20056;-83
2023/08/31 10:54:34;;;;;;;0.22;0.22;;;23.20;64.80;;;;;;5017640;28;20057;-83
2023/08/31 10:57:00;;;;;;;1.33;0.50;;;23.40;67.00;;;;;;5016763;28;20029;-83
2023/08/31 10:59:40;;;;;;;2.30;0.55;;;23.50;67.50;;;;;;5016003;28;20018;-82
2023/08/31 11:02:06;;;;;;;1.60;0.60;;;23.30;70.60;;;;;;5017847;28;20435;-82
2023/08/31 11:04:52;;;;;;;3.78;0.60;;;23.40;71.80;;;;;;5018323;28;20026;-83
2023/08/31 11:07:23;;;;;;;2.10;0.73;;;23.20;71.50;;;;;;5016439;28;20022;-83
2023/08/31 11:09:48;;;;;;;0.88;0.50;;;23.30;71.20;;;;;;5018176;28;20488;-83
2023/08/31 11:12:14;;;;;;;1.13;0.68;;;23.30;73.70;;;;;;5017101;28;20026;-83
2023/08/31 11:14:40;;;;;;;1.02;0.63;;;23.20;74.60;;;;;;5019114;28;20049;-83
2023/08/31 11:17:07;;;;;;;0.40;0.40;;;23.20;70.90;;;;;;5017807;28;20047;-83
2023/08/31 11:19:34;;;;;;;0.93;0.60;;;23.10;73.40;;;;;;5017191;28;20021;-83
2023/08/31 11:22:04;;;;;;;0.30;0.30;;;23.20;76.50;;;;;;5020298;28;20022;-83
2023/08/31 11:24:31;;;;;;;0.60;0.60;;;23.20;78.70;;;;;;5022790;28;20045;-82
2023/08/31 11:26:56;;;;;;;0.68;0.63;;;23.20;78.80;;;;;;5020659;28;20485;-82
2023/08/31 11:29:22;;;;;;;0.70;0.70;;;23.20;78.00;;;;;;5021635;28;20022;-84
2023/08/31 11:31:48;;;;;;;0.77;0.77;;;23.20;73.60;;;;;;5021994;28;20074;-84
2023/08/31 11:34:15;;;;;;;0.90;0.45;;;23.20;74.60;;;;;;5021891;28;20030;-85
2023/08/31 11:36:42;;;;;;;1.88;0.47;;;23.20;76.70;;;;;;5019820;28;20026;-83
2023/08/31 11:39:11;;;;;;;0.52;0.30;;;23.40;75.30;;;;;;5021394;28;20022;-82
2023/08/31 11:41:41;;;;;;;0.63;0.63;;;23.40;73.40;;;;;;5019875;28;20495;-84
2023/08/31 11:44:16;;;;;;;0.75;0.75;;;23.40;74.60;;;;;;5020058;28;20057;-82
2023/08/31 11:46:45;;;;;;;0.57;0.52;;;23.50;71.70;;;;;;5021182;28;20018;-82
2023/08/31 11:49:11;;;;;;;0.70;0.50;;;23.50;74.20;;;;;;5019816;28;20522;-82
2023/08/31 11:51:39;;;;;;;2.00;0.63;;;23.40;73.60;;;;;;5019487;28;20034;-82
2023/08/31 11:54:05;;;;;;;3.50;0.55;;;23.50;72.90;;;;;;5021679;28;20053;-82
2023/08/31 11:56:46;;;;;;;0.63;0.40;;;23.70;73.70;;;;;;5019653;28;20075;-83
2023/08/31 11:59:14;;;;;;;0.52;0.52;;;23.90;69.60;;;;;;5019679;28;20041;-83
2023/08/31 12:01:42;;;;;;;0.82;0.40;;;24.00;68.30;;;;;;5019801;28;20033;-83
2023/08/31 12:04:16;;;;;;;0.52;0.52;;;24.10;71.10;;;;;;5021972;28;20022;-83
2023/08/31 12:06:45;;;;;;;1.05;0.68;;;24.40;71.60;;;;;;5021910;28;20025;-83
2023/08/31 12:09:11;;;;;;;1.35;0.57;;;24.50;70.70;;;;;;5019922;28;20025;-85
2023/08/31 12:11:37;;;;;;;0.50;0.50;;;24.50;68.30;;;;;;5019910;28;20029;-84
2023/08/31 12:14:06;;;;;;;1.17;0.60;;;24.40;70.40;;;;;;5020154;28;20044;-83
2023/08/31 12:16:36;;;;;;;0.57;0.35;;;24.40;69.60;;;;;;5020879;28;20037;-84
2023/08/31 12:19:04;;;;;;;0.93;0.38;;;24.20;67.20;;;;;;5019793;28;20033;-85
2023/08/31 12:21:33;;;;;;;0.57;0.50;;;24.10;64.30;;;;;;5021440;28;20495;-83
2023/08/31 12:23:59;;;;;;;1.88;0.70;;;23.80;70.30;;;;;;5022513;28;20120;-83
2023/08/31 12:26:28;;;;;;;1.00;0.60;;;23.80;66.10;;;;;;5029543;28;20090;-83
2023/08/31 12:28:54;;;;;;;0.50;0.50;;;24.00;67.80;;;;;;5031372;28;20061;-83
2023/08/31 12:31:20;;;;;;;0.98;0.60;;;24.20;67.30;;;;;;5031745;28;20030;-83
2023/08/31 12:33:45;;;;;;;2.75;0.70;;;24.30;68.10;;;;;;5028856;28;20024;-82
2023/08/31 12:36:11;;;;;;;0.50;0.50;;;24.20;60.80;;;;;;5033257;28;20026;-83
2023/08/31 12:38:37;;;;;;;0.60;0.60;;;24.10;63.50;;;;;;5030560;28;20040;-83
2023/08/31 12:41:02;;;;;;;0.68;0.68;;;24.20;64.40;;;;;;5037302;28;20060;-82
2023/08/31 12:43:28;;;;;;;0.63;0.63;;;24.20;64.40;;;;;;5038515;28;20041;-82
2023/08/31 12:45:55;;;;;;;0.47;0.43;;;24.00;65.20;;;;;;5038665;28;20017;-82